sensor_id;sensor_type;location;lat;lon;timestamp;P1;P2;P0
12246;PMS7003;6186;52.022;4.692;2023-05-10T00:01:22;17.50;13.50;6.00
12246;PMS7003;6186;52.022;4.692;2023-05-10T00:03:47;15.00;13.25;6.00
12246;PMS7003;6186;52.022;4.692;2023-05-10T00:06:12;17.50;14.25;7.25
12246;PMS7003;6186;52.022;4.692;2023-05-10T00:08:38;14.00;13.50;6.75
12246;PMS7003;6186;52.022;4.692;2023-05-10T00:11:03;13.25;12.00;6.50
12246;PMS7003;6186;52.022;4.692;2023-05-10T00:13:28;14.50;13.50;6.75
12246;PMS7003;6186;52.022;4.692;2023-05-10T00:15:53;15.25;14.25;6.50
12246;PMS7003;6186;52.022;4.692;2023-05-10T00:18:19;12.75;11.00;6.00
12246;PMS7003;6186;52.022;4.692;2023-05-10T00:20:44;12.75;11.50;6.00
12246;PMS7003;6186;52.022;4.692;2023-05-10T00:23:09;13.25;12.75;7.00
12246;PMS7003;6186;52.022;4.692;2023-05-10T00:25:34;17.00;14.00;6.75
12246;PMS7003;6186;52.022;4.692;2023-05-10T00:28:00;15.75;13.75;6.75
12246;PMS7003;6186;52.022;4.692;2023-05-10T00:30:25;14.00;13.00;7.25
12246;PMS7003;6186;52.022;4.692;2023-05-10T00:32:50;14.00;11.50;6.00
12246;PMS7003;6186;52.022;4.692;2023-05-10T00:35:15;18.25;15.25;7.25
12246;PMS7003;6186;52.022;4.692;2023-05-10T00:37:41;15.50;14.00;7.25
12246;PMS7003;6186;52.022;4.692;2023-05-10T00:40:06;19.75;14.50;7.75
12246;PMS7003;6186;52.022;4.692;2023-05-10T00:42:32;19.25;14.00;7.75
12246;PMS7003;6186;52.022;4.692;2023-05-10T00:44:57;15.75;14.50;8.25
12246;PMS7003;6186;52.022;4.692;2023-05-10T00:47:22;16.50;12.00;6.50
12246;PMS7003;6186;52.022;4.692;2023-05-10T00:49:48;17.50;13.25;7.00
12246;PMS7003;6186;52.022;4.692;2023-05-10T00:52:13;17.25;13.75;6.00
12246;PMS7003;6186;52.022;4.692;2023-05-10T00:54:39;16.50;14.25;9.00
12246;PMS7003;6186;52.022;4.692;2023-05-10T00:57:04;12.50;12.25;5.75
12246;PMS7003;6186;52.022;4.692;2023-05-10T00:59:29;18.50;13.75;7.00
12246;PMS7003;6186;52.022;4.692;2023-05-10T01:01:55;19.50;16.50;8.75
12246;PMS7003;6186;52.022;4.692;2023-05-10T01:04:20;15.00;14.00;7.25
12246;PMS7003;6186;52.022;4.692;2023-05-10T01:06:45;14.25;11.50;5.50
12246;PMS7003;6186;52.022;4.692;2023-05-10T01:09:10;16.25;14.75;9.00
12246;PMS7003;6186;52.022;4.692;2023-05-10T01:11:36;19.75;15.75;9.00
12246;PMS7003;6186;52.022;4.692;2023-05-10T01:14:03;15.20;12.20;7.40
12246;PMS7003;6186;52.022;4.692;2023-05-10T01:16:34;19.60;15.40;7.40
12246;PMS7003;6186;52.022;4.692;2023-05-10T01:19:03;18.80;15.00;7.40
12246;PMS7003;6186;52.022;4.692;2023-05-10T01:21:33;18.80;14.20;7.40
12246;PMS7003;6186;52.022;4.692;2023-05-10T01:30:01;15.80;13.00;6.80
12246;PMS7003;6186;52.022;4.692;2023-05-10T01:32:14;18.60;14.20;8.00
12246;PMS7003;6186;52.022;4.692;2023-05-10T01:37:52;13.40;12.40;6.40
12246;PMS7003;6186;52.022;4.692;2023-05-10T01:40:55;21.20;14.00;7.40
12246;PMS7003;6186;52.022;4.692;2023-05-10T01:43:26;14.20;12.80;7.00
12246;PMS7003;6186;52.022;4.692;2023-05-10T01:46:00;17.00;14.20;5.80
12246;PMS7003;6186;52.022;4.692;2023-05-10T01:48:47;18.20;17.00;7.40
12246;PMS7003;6186;52.022;4.692;2023-05-10T01:51:17;20.80;15.40;8.40
12246;PMS7003;6186;52.022;4.692;2023-05-10T01:53:46;22.40;18.00;9.00
12246;PMS7003;6186;52.022;4.692;2023-05-10T01:56:13;20.00;19.00;9.40
12246;PMS7003;6186;52.022;4.692;2023-05-10T01:58:40;20.60;19.60;10.00
12246;PMS7003;6186;52.022;4.692;2023-05-10T02:01:10;21.00;16.20;7.60
12246;PMS7003;6186;52.022;4.692;2023-05-10T02:03:37;19.80;15.40;8.20
12246;PMS7003;6186;52.022;4.692;2023-05-10T02:06:04;21.80;17.40;8.20
12246;PMS7003;6186;52.022;4.692;2023-05-10T02:08:32;21.60;18.60;9.60
12246;PMS7003;6186;52.022;4.692;2023-05-10T02:11:00;20.20;17.40;9.00
12246;PMS7003;6186;52.022;4.692;2023-05-10T02:13:26;19.40;16.80;8.20
12246;PMS7003;6186;52.022;4.692;2023-05-10T02:15:54;18.00;15.00;7.80
12246;PMS7003;6186;52.022;4.692;2023-05-10T02:18:21;21.40;18.20;8.40
12246;PMS7003;6186;52.022;4.692;2023-05-10T02:20:48;15.60;14.80;8.80
12246;PMS7003;6186;52.022;4.692;2023-05-10T02:23:17;21.60;19.40;10.00
12246;PMS7003;6186;52.022;4.692;2023-05-10T02:25:43;16.00;14.60;7.40
12246;PMS7003;6186;52.022;4.692;2023-05-10T02:28:10;18.80;15.80;9.40
12246;PMS7003;6186;52.022;4.692;2023-05-10T02:30:37;20.60;18.80;10.00
12246;PMS7003;6186;52.022;4.692;2023-05-10T02:33:03;18.60;15.00;7.40
12246;PMS7003;6186;52.022;4.692;2023-05-10T02:35:30;19.60;17.40;9.00
12246;PMS7003;6186;52.022;4.692;2023-05-10T02:37:56;19.20;17.40;7.40
12246;PMS7003;6186;52.022;4.692;2023-05-10T02:40:24;20.20;18.60;10.00
12246;PMS7003;6186;52.022;4.692;2023-05-10T02:42:52;21.80;18.60;10.00
12246;PMS7003;6186;52.022;4.692;2023-05-10T02:45:19;20.60;18.20;10.00
12246;PMS7003;6186;52.022;4.692;2023-05-10T02:47:47;21.00;18.00;10.00
12246;PMS7003;6186;52.022;4.692;2023-05-10T02:50:13;19.60;17.00;10.00
12246;PMS7003;6186;52.022;4.692;2023-05-10T02:52:39;25.00;21.25;11.00
12246;PMS7003;6186;52.022;4.692;2023-05-10T02:55:08;21.20;19.20;10.40
12246;PMS7003;6186;52.022;4.692;2023-05-10T02:57:35;19.00;16.00;9.00
12246;PMS7003;6186;52.022;4.692;2023-05-10T03:00:07;19.20;16.20;10.00
12246;PMS7003;6186;52.022;4.692;2023-05-10T03:02:32;20.75;16.75;10.00
12246;PMS7003;6186;52.022;4.692;2023-05-10T03:04:57;18.50;16.50;9.00
12246;PMS7003;6186;52.022;4.692;2023-05-10T03:07:23;16.25;14.00;6.50
12246;PMS7003;6186;52.022;4.692;2023-05-10T03:09:48;17.00;14.00;7.25
12246;PMS7003;6186;52.022;4.692;2023-05-10T03:15:13;18.80;16.40;8.00
12246;PMS7003;6186;52.022;4.692;2023-05-10T03:17:51;20.80;17.60;9.80
12246;PMS7003;6186;52.022;4.692;2023-05-10T03:20:22;18.60;16.80;10.60
12246;PMS7003;6186;52.022;4.692;2023-05-10T03:22:53;20.60;17.80;9.40
12246;PMS7003;6186;52.022;4.692;2023-05-10T03:25:25;28.40;19.40;9.40
12246;PMS7003;6186;52.022;4.692;2023-05-10T03:27:51;20.40;15.80;10.00
12246;PMS7003;6186;52.022;4.692;2023-05-10T03:30:17;27.20;20.00;10.60
12246;PMS7003;6186;52.022;4.692;2023-05-10T03:32:44;24.60;20.80;12.00
12246;PMS7003;6186;52.022;4.692;2023-05-10T03:35:09;24.25;21.75;10.25
12246;PMS7003;6186;52.022;4.692;2023-05-10T03:37:35;22.60;18.60;10.60
12246;PMS7003;6186;52.022;4.692;2023-05-10T03:40:01;20.25;18.75;9.00
12246;PMS7003;6186;52.022;4.692;2023-05-10T03:42:27;23.80;19.80;9.80
12246;PMS7003;6186;52.022;4.692;2023-05-10T03:44:52;20.25;18.25;10.00
12246;PMS7003;6186;52.022;4.692;2023-05-10T03:47:18;22.50;19.00;10.00
12246;PMS7003;6186;52.022;4.692;2023-05-10T03:49:43;22.00;16.75;10.00
12246;PMS7003;6186;52.022;4.692;2023-05-10T03:52:08;22.50;18.50;8.75
12246;PMS7003;6186;52.022;4.692;2023-05-10T03:54:33;20.00;19.00;10.25
12246;PMS7003;6186;52.022;4.692;2023-05-10T03:56:58;22.25;17.50;9.25
12246;PMS7003;6186;52.022;4.692;2023-05-10T03:59:24;25.00;22.50;12.25
12246;PMS7003;6186;52.022;4.692;2023-05-10T04:01:49;21.00;19.00;10.75
12246;PMS7003;6186;52.022;4.692;2023-05-10T04:04:14;26.75;24.50;13.00
12246;PMS7003;6186;52.022;4.692;2023-05-10T04:06:39;23.50;20.75;11.75
12246;PMS7003;6186;52.022;4.692;2023-05-10T04:09:05;22.75;19.75;11.75
12246;PMS7003;6186;52.022;4.692;2023-05-10T04:11:30;23.75;19.50;11.00
12246;PMS7003;6186;52.022;4.692;2023-05-10T04:13:56;25.25;23.00;13.00
12246;PMS7003;6186;52.022;4.692;2023-05-10T04:16:21;25.20;22.00;13.40
12246;PMS7003;6186;52.022;4.692;2023-05-10T04:18:46;26.25;19.75;11.00
12246;PMS7003;6186;52.022;4.692;2023-05-10T04:21:12;23.25;19.25;10.50
12246;PMS7003;6186;52.022;4.692;2023-05-10T04:23:37;24.80;18.60;10.80
12246;PMS7003;6186;52.022;4.692;2023-05-10T04:26:03;27.75;24.25;12.00
12246;PMS7003;6186;52.022;4.692;2023-05-10T04:28:28;24.00;21.00;12.00
12246;PMS7003;6186;52.022;4.692;2023-05-10T04:30:59;19.25;18.00;10.75
12246;PMS7003;6186;52.022;4.692;2023-05-10T04:33:25;27.60;22.40;12.40
12246;PMS7003;6186;52.022;4.692;2023-05-10T04:35:51;29.50;24.75;13.50
12246;PMS7003;6186;52.022;4.692;2023-05-10T04:38:16;28.00;24.75;14.00
12246;PMS7003;6186;52.022;4.692;2023-05-10T04:40:41;25.50;20.50;11.00
12246;PMS7003;6186;52.022;4.692;2023-05-10T04:43:06;26.50;21.75;12.50
12246;PMS7003;6186;52.022;4.692;2023-05-10T04:45:31;21.50;20.00;11.75
12246;PMS7003;6186;52.022;4.692;2023-05-10T04:47:57;25.50;21.25;11.75
12246;PMS7003;6186;52.022;4.692;2023-05-10T04:50:22;22.75;21.00;11.00
12246;PMS7003;6186;52.022;4.692;2023-05-10T04:52:47;20.25;19.00;10.75
12246;PMS7003;6186;52.022;4.692;2023-05-10T04:55:12;28.75;23.00;12.00
12246;PMS7003;6186;52.022;4.692;2023-05-10T04:57:37;26.25;24.00;12.00
12246;PMS7003;6186;52.022;4.692;2023-05-10T05:00:03;20.00;19.00;10.00
12246;PMS7003;6186;52.022;4.692;2023-05-10T05:02:28;21.25;18.25;8.75
12246;PMS7003;6186;52.022;4.692;2023-05-10T05:04:55;17.50;15.00;9.50
12246;PMS7003;6186;52.022;4.692;2023-05-10T05:07:20;21.40;16.40;9.80
12246;PMS7003;6186;52.022;4.692;2023-05-10T05:09:46;18.75;16.25;9.00
12246;PMS7003;6186;52.022;4.692;2023-05-10T05:12:11;17.25;16.50;9.25
12246;PMS7003;6186;52.022;4.692;2023-05-10T05:14:36;21.00;18.25;10.00
12246;PMS7003;6186;52.022;4.692;2023-05-10T05:17:01;16.00;14.75;7.25
12246;PMS7003;6186;52.022;4.692;2023-05-10T05:19:26;18.25;16.25;9.00
12246;PMS7003;6186;52.022;4.692;2023-05-10T05:21:52;17.00;15.00;9.00
12246;PMS7003;6186;52.022;4.692;2023-05-10T05:24:17;22.25;16.25;9.00
12246;PMS7003;6186;52.022;4.692;2023-05-10T05:26:42;16.00;13.00;7.25
12246;PMS7003;6186;52.022;4.692;2023-05-10T05:29:07;15.50;13.75;7.25
12246;PMS7003;6186;52.022;4.692;2023-05-10T05:31:33;14.75;12.25;6.00
12246;PMS7003;6186;52.022;4.692;2023-05-10T05:33:58;16.25;12.75;7.00
12246;PMS7003;6186;52.022;4.692;2023-05-10T05:36:23;13.50;13.25;5.00
12246;PMS7003;6186;52.022;4.692;2023-05-10T05:38:48;16.00;14.00;7.00
12246;PMS7003;6186;52.022;4.692;2023-05-10T05:41:13;11.25;11.00;5.75
12246;PMS7003;6186;52.022;4.692;2023-05-10T05:43:39;12.25;10.75;5.00
12246;PMS7003;6186;52.022;4.692;2023-05-10T05:46:04;11.00;10.00;5.00
12246;PMS7003;6186;52.022;4.692;2023-05-10T05:48:30;13.25;11.00;5.00
12246;PMS7003;6186;52.022;4.692;2023-05-10T05:50:56;13.20;11.20;6.20
12246;PMS7003;6186;52.022;4.692;2023-05-10T05:53:21;14.75;12.50;5.00
12246;PMS7003;6186;52.022;4.692;2023-05-10T05:55:56;11.50;10.25;4.25
12246;PMS7003;6186;52.022;4.692;2023-05-10T05:58:22;14.00;13.00;6.00
12246;PMS7003;6186;52.022;4.692;2023-05-10T06:00:48;12.25;11.00;5.00
12246;PMS7003;6186;52.022;4.692;2023-05-10T06:03:13;12.00;10.50;5.50
12246;PMS7003;6186;52.022;4.692;2023-05-10T06:05:38;12.25;11.50;5.25
12246;PMS7003;6186;52.022;4.692;2023-05-10T06:08:03;11.50;10.00;5.25
12246;PMS7003;6186;52.022;4.692;2023-05-10T06:10:29;19.00;13.00;5.75
12246;PMS7003;6186;52.022;4.692;2023-05-10T06:12:54;10.25;10.25;5.00
12246;PMS7003;6186;52.022;4.692;2023-05-10T06:15:19;13.75;11.00;5.50
12246;PMS7003;6186;52.022;4.692;2023-05-10T06:17:44;9.50;9.25;4.00
12246;PMS7003;6186;52.022;4.692;2023-05-10T06:20:10;10.00;9.00;4.00
12246;PMS7003;6186;52.022;4.692;2023-05-10T06:22:35;11.60;10.80;4.60
12246;PMS7003;6186;52.022;4.692;2023-05-10T06:25:01;11.25;10.00;4.00
12246;PMS7003;6186;52.022;4.692;2023-05-10T06:27:26;10.00;9.00;4.00
12246;PMS7003;6186;52.022;4.692;2023-05-10T06:29:51;9.25;9.00;4.00
12246;PMS7003;6186;52.022;4.692;2023-05-10T06:32:16;7.00;6.50;3.50
12246;PMS7003;6186;52.022;4.692;2023-05-10T06:34:42;11.25;6.75;3.00
12246;PMS7003;6186;52.022;4.692;2023-05-10T06:37:07;8.00;6.25;3.00
12246;PMS7003;6186;52.022;4.692;2023-05-10T06:39:32;8.50;7.75;4.00
12246;PMS7003;6186;52.022;4.692;2023-05-10T06:41:57;8.00;7.00;3.00
12246;PMS7003;6186;52.022;4.692;2023-05-10T06:44:23;6.00;5.00;2.25
12246;PMS7003;6186;52.022;4.692;2023-05-10T06:46:48;6.00;6.00;3.00
12246;PMS7003;6186;52.022;4.692;2023-05-10T06:49:13;7.75;6.75;3.25
12246;PMS7003;6186;52.022;4.692;2023-05-10T06:51:38;7.50;7.00;3.00
12246;PMS7003;6186;52.022;4.692;2023-05-10T06:54:03;6.00;5.50;2.50
12246;PMS7003;6186;52.022;4.692;2023-05-10T06:56:29;6.25;6.25;3.25
12246;PMS7003;6186;52.022;4.692;2023-05-10T06:58:54;6.00;5.50;3.00
12246;PMS7003;6186;52.022;4.692;2023-05-10T07:01:19;7.50;7.25;2.00
12246;PMS7003;6186;52.022;4.692;2023-05-10T07:03:44;5.25;5.25;2.25
12246;PMS7003;6186;52.022;4.692;2023-05-10T07:06:09;5.00;5.00;2.25
12246;PMS7003;6186;52.022;4.692;2023-05-10T07:08:35;5.25;4.50;2.00
12246;PMS7003;6186;52.022;4.692;2023-05-10T07:11:03;6.00;5.75;2.00
12246;PMS7003;6186;52.022;4.692;2023-05-10T07:13:33;8.80;6.20;2.60
12246;PMS7003;6186;52.022;4.692;2023-05-10T07:15:59;5.40;5.00;2.80
12246;PMS7003;6186;52.022;4.692;2023-05-10T07:18:25;5.60;5.00;2.00
12246;PMS7003;6186;52.022;4.692;2023-05-10T07:20:50;4.25;4.00;1.00
12246;PMS7003;6186;52.022;4.692;2023-05-10T07:23:15;4.00;4.00;1.00
12246;PMS7003;6186;52.022;4.692;2023-05-10T07:25:41;5.00;5.00;2.25
12246;PMS7003;6186;52.022;4.692;2023-05-10T07:28:06;4.50;4.00;1.00
12246;PMS7003;6186;52.022;4.692;2023-05-10T07:30:31;3.75;3.75;1.00
12246;PMS7003;6186;52.022;4.692;2023-05-10T07:32:56;6.00;5.00;2.00
12246;PMS7003;6186;52.022;4.692;2023-05-10T07:35:21;3.00;3.00;1.00
12246;PMS7003;6186;52.022;4.692;2023-05-10T07:37:47;6.00;5.00;2.00
12246;PMS7003;6186;52.022;4.692;2023-05-10T07:40:12;4.00;4.00;1.25
12246;PMS7003;6186;52.022;4.692;2023-05-10T07:42:37;5.00;4.00;1.50
12246;PMS7003;6186;52.022;4.692;2023-05-10T07:45:03;3.00;3.00;1.00
12246;PMS7003;6186;52.022;4.692;2023-05-10T07:47:28;3.50;3.00;1.00
12246;PMS7003;6186;52.022;4.692;2023-05-10T07:49:53;4.00;3.75;1.00
12246;PMS7003;6186;52.022;4.692;2023-05-10T07:52:19;4.25;3.00;1.00
12246;PMS7003;6186;52.022;4.692;2023-05-10T07:54:44;2.75;2.00;1.00
12246;PMS7003;6186;52.022;4.692;2023-05-10T07:57:09;2.00;2.00;1.00
12246;PMS7003;6186;52.022;4.692;2023-05-10T07:59:34;4.25;3.75;1.00
12246;PMS7003;6186;52.022;4.692;2023-05-10T08:01:59;4.00;3.25;2.00
12246;PMS7003;6186;52.022;4.692;2023-05-10T08:04:25;4.50;4.00;2.00
12246;PMS7003;6186;52.022;4.692;2023-05-10T08:06:50;3.00;3.00;1.00
12246;PMS7003;6186;52.022;4.692;2023-05-10T08:09:15;6.00;5.00;2.00
12246;PMS7003;6186;52.022;4.692;2023-05-10T08:11:40;3.75;3.75;1.00
12246;PMS7003;6186;52.022;4.692;2023-05-10T08:14:06;5.25;5.25;2.00
12246;PMS7003;6186;52.022;4.692;2023-05-10T08:16:31;5.00;5.00;2.25
12246;PMS7003;6186;52.022;4.692;2023-05-10T08:18:56;4.50;4.50;1.25
12246;PMS7003;6186;52.022;4.692;2023-05-10T08:21:21;4.75;4.75;2.00
12246;PMS7003;6186;52.022;4.692;2023-05-10T08:23:47;5.50;4.50;2.00
12246;PMS7003;6186;52.022;4.692;2023-05-10T08:26:12;5.00;4.00;2.00
12246;PMS7003;6186;52.022;4.692;2023-05-10T08:28:37;5.25;5.00;2.00
12246;PMS7003;6186;52.022;4.692;2023-05-10T08:31:02;3.75;3.75;1.25
12246;PMS7003;6186;52.022;4.692;2023-05-10T08:33:28;4.00;4.00;1.20
12246;PMS7003;6186;52.022;4.692;2023-05-10T08:35:54;5.75;5.00;2.00
12246;PMS7003;6186;52.022;4.692;2023-05-10T08:38:19;5.50;5.50;3.00
12246;PMS7003;6186;52.022;4.692;2023-05-10T08:40:44;7.00;5.50;3.00
12246;PMS7003;6186;52.022;4.692;2023-05-10T08:43:10;7.00;6.00;2.25
12246;PMS7003;6186;52.022;4.692;2023-05-10T08:45:38;5.00;5.00;2.00
12246;PMS7003;6186;52.022;4.692;2023-05-10T08:48:08;5.80;5.00;2.40
12246;PMS7003;6186;52.022;4.692;2023-05-10T08:50:41;5.80;5.80;2.00
12246;PMS7003;6186;52.022;4.692;2023-05-10T08:53:10;4.60;4.00;2.00
12246;PMS7003;6186;52.022;4.692;2023-05-10T08:55:36;4.40;4.40;2.00
12246;PMS7003;6186;52.022;4.692;2023-05-10T08:58:02;5.20;5.20;3.00
12246;PMS7003;6186;52.022;4.692;2023-05-10T09:00:28;5.80;5.80;2.80
12246;PMS7003;6186;52.022;4.692;2023-05-10T09:02:53;5.75;5.00;2.00
12246;PMS7003;6186;52.022;4.692;2023-05-10T09:05:19;4.50;4.00;2.00
12246;PMS7003;6186;52.022;4.692;2023-05-10T09:07:44;5.25;5.00;2.00
12246;PMS7003;6186;52.022;4.692;2023-05-10T09:10:10;6.00;5.00;2.75
12246;PMS7003;6186;52.022;4.692;2023-05-10T09:12:37;4.20;4.00;2.00
12246;PMS7003;6186;52.022;4.692;2023-05-10T09:15:03;6.00;5.00;2.00
12246;PMS7003;6186;52.022;4.692;2023-05-10T09:17:30;5.20;4.40;2.00
12246;PMS7003;6186;52.022;4.692;2023-05-10T09:20:02;5.25;5.00;2.00
12246;PMS7003;6186;52.022;4.692;2023-05-10T09:22:28;4.00;4.00;2.00
12246;PMS7003;6186;52.022;4.692;2023-05-10T09:27:33;4.40;4.20;1.00
12246;PMS7003;6186;52.022;4.692;2023-05-10T09:29:59;5.40;5.00;2.00
12246;PMS7003;6186;52.022;4.692;2023-05-10T09:32:35;5.00;5.00;2.00
12246;PMS7003;6186;52.022;4.692;2023-05-10T09:35:11;7.20;5.80;2.00
12246;PMS7003;6186;52.022;4.692;2023-05-10T09:37:42;5.20;4.20;2.00
12246;PMS7003;6186;52.022;4.692;2023-05-10T09:40:12;7.20;4.80;2.00
12246;PMS7003;6186;52.022;4.692;2023-05-10T09:42:40;4.60;4.60;1.80
12246;PMS7003;6186;52.022;4.692;2023-05-10T09:45:16;6.00;5.00;2.00
12246;PMS7003;6186;52.022;4.692;2023-05-10T09:47:41;4.00;4.00;2.00
12246;PMS7003;6186;52.022;4.692;2023-05-10T09:50:07;5.50;5.25;2.00
12246;PMS7003;6186;52.022;4.692;2023-05-10T09:52:49;4.50;4.50;1.75
12246;PMS7003;6186;52.022;4.692;2023-05-10T09:55:18;5.40;4.60;2.00
12246;PMS7003;6186;52.022;4.692;2023-05-10T09:57:47;4.60;4.00;2.00
12246;PMS7003;6186;52.022;4.692;2023-05-10T10:00:17;5.00;4.20;1.20
12246;PMS7003;6186;52.022;4.692;2023-05-10T10:02:45;5.00;5.00;2.00
12246;PMS7003;6186;52.022;4.692;2023-05-10T10:05:11;6.60;5.60;2.00
12246;PMS7003;6186;52.022;4.692;2023-05-10T10:07:36;5.00;4.50;2.00
12246;PMS7003;6186;52.022;4.692;2023-05-10T10:10:02;4.00;4.00;2.00
12246;PMS7003;6186;52.022;4.692;2023-05-10T10:12:28;5.00;5.00;2.00
12246;PMS7003;6186;52.022;4.692;2023-05-10T10:14:53;8.25;7.00;3.75
12246;PMS7003;6186;52.022;4.692;2023-05-10T10:17:20;6.00;5.00;2.00
12246;PMS7003;6186;52.022;4.692;2023-05-10T10:19:46;5.60;4.60;2.00
12246;PMS7003;6186;52.022;4.692;2023-05-10T10:22:13;7.60;4.40;2.00
12246;PMS7003;6186;52.022;4.692;2023-05-10T10:24:38;7.25;5.75;2.00
12246;PMS7003;6186;52.022;4.692;2023-05-10T10:27:09;5.75;4.25;2.00
12246;PMS7003;6186;52.022;4.692;2023-05-10T10:29:44;4.00;3.20;1.80
12246;PMS7003;6186;52.022;4.692;2023-05-10T10:32:19;4.00;4.00;2.00
12246;PMS7003;6186;52.022;4.692;2023-05-10T10:34:51;5.40;5.00;2.40
12246;PMS7003;6186;52.022;4.692;2023-05-10T10:37:17;5.75;5.00;2.00
12246;PMS7003;6186;52.022;4.692;2023-05-10T10:39:42;5.20;5.20;2.00
12246;PMS7003;6186;52.022;4.692;2023-05-10T10:42:07;5.00;5.00;2.75
12246;PMS7003;6186;52.022;4.692;2023-05-10T10:49:38;6.00;5.00;3.00
12246;PMS7003;6186;52.022;4.692;2023-05-10T10:52:15;6.80;6.60;3.00
12246;PMS7003;6186;52.022;4.692;2023-05-10T10:54:49;9.00;7.00;3.00
12246;PMS7003;6186;52.022;4.692;2023-05-10T10:57:17;8.00;6.00;2.80
12246;PMS7003;6186;52.022;4.692;2023-05-10T10:59:43;6.00;5.00;2.60
12246;PMS7003;6186;52.022;4.692;2023-05-10T11:02:09;6.50;5.50;2.25
12246;PMS7003;6186;52.022;4.692;2023-05-10T11:04:43;8.25;7.50;3.00
12246;PMS7003;6186;52.022;4.692;2023-05-10T11:07:18;8.00;7.00;3.60
12246;PMS7003;6186;52.022;4.692;2023-05-10T11:09:44;8.00;6.60;3.60
12246;PMS7003;6186;52.022;4.692;2023-05-10T11:12:09;6.75;5.75;3.00
12246;PMS7003;6186;52.022;4.692;2023-05-10T11:14:34;7.50;7.00;4.00
12246;PMS7003;6186;52.022;4.692;2023-05-10T11:17:00;8.50;7.00;4.00
12246;PMS7003;6186;52.022;4.692;2023-05-10T11:19:27;6.60;6.40;3.00
12246;PMS7003;6186;52.022;4.692;2023-05-10T11:22:26;6.00;6.00;3.00
12246;PMS7003;6186;52.022;4.692;2023-05-10T11:24:55;6.20;6.00;3.00
12246;PMS7003;6186;52.022;4.692;2023-05-10T11:27:21;9.80;7.80;4.00
12246;PMS7003;6186;52.022;4.692;2023-05-10T11:29:50;7.00;6.50;3.00
12246;PMS7003;6186;52.022;4.692;2023-05-10T11:32:16;7.00;7.00;3.00
12246;PMS7003;6186;52.022;4.692;2023-05-10T11:34:42;7.50;5.00;2.25
12246;PMS7003;6186;52.022;4.692;2023-05-10T11:37:11;5.80;5.60;2.20
12246;PMS7003;6186;52.022;4.692;2023-05-10T11:39:37;7.25;7.00;4.00
12246;PMS7003;6186;52.022;4.692;2023-05-10T11:42:02;6.25;6.00;3.00
12246;PMS7003;6186;52.022;4.692;2023-05-10T11:44:30;6.00;5.50;2.00
12246;PMS7003;6186;52.022;4.692;2023-05-10T11:47:00;6.40;6.40;3.00
12246;PMS7003;6186;52.022;4.692;2023-05-10T11:49:26;7.00;6.80;3.00
12246;PMS7003;6186;52.022;4.692;2023-05-10T11:51:51;6.00;6.00;3.00
12246;PMS7003;6186;52.022;4.692;2023-05-10T11:54:16;5.00;4.75;2.00
12246;PMS7003;6186;52.022;4.692;2023-05-10T11:56:41;8.00;6.75;3.00
12246;PMS7003;6186;52.022;4.692;2023-05-10T11:59:07;5.75;5.00;3.00
12246;PMS7003;6186;52.022;4.692;2023-05-10T12:01:32;7.00;6.50;3.00
12246;PMS7003;6186;52.022;4.692;2023-05-10T12:03:58;9.00;7.40;3.60
12246;PMS7003;6186;52.022;4.692;2023-05-10T12:06:25;7.00;7.00;4.00
12246;PMS7003;6186;52.022;4.692;2023-05-10T12:08:52;6.40;5.00;2.40
12246;PMS7003;6186;52.022;4.692;2023-05-10T12:11:17;7.75;6.75;3.00
12246;PMS7003;6186;52.022;4.692;2023-05-10T12:13:43;5.75;5.75;3.00
12246;PMS7003;6186;52.022;4.692;2023-05-10T12:16:19;7.20;7.20;3.80
12246;PMS7003;6186;52.022;4.692;2023-05-10T12:18:49;9.20;8.80;4.20
12246;PMS7003;6186;52.022;4.692;2023-05-10T12:21:15;7.00;6.20;3.00
12246;PMS7003;6186;52.022;4.692;2023-05-10T12:23:40;6.00;6.00;3.00
12246;PMS7003;6186;52.022;4.692;2023-05-10T12:26:06;7.75;7.00;3.00
12246;PMS7003;6186;52.022;4.692;2023-05-10T12:28:33;7.75;6.75;3.00
12246;PMS7003;6186;52.022;4.692;2023-05-10T12:30:59;8.00;6.75;4.00
12246;PMS7003;6186;52.022;4.692;2023-05-10T12:33:25;7.20;6.00;3.00
12246;PMS7003;6186;52.022;4.692;2023-05-10T12:35:51;5.75;5.00;2.50
12246;PMS7003;6186;52.022;4.692;2023-05-10T12:38:27;5.00;5.00;3.00
12246;PMS7003;6186;52.022;4.692;2023-05-10T12:41:07;6.80;5.80;3.60
12246;PMS7003;6186;52.022;4.692;2023-05-10T12:43:33;6.40;6.00;3.00
12246;PMS7003;6186;52.022;4.692;2023-05-10T12:48:31;8.60;7.20;3.00
12246;PMS7003;6186;52.022;4.692;2023-05-10T12:50:56;7.00;6.75;3.00
12246;PMS7003;6186;52.022;4.692;2023-05-10T12:53:21;6.00;5.25;3.00
12246;PMS7003;6186;52.022;4.692;2023-05-10T12:55:46;8.00;6.25;3.00
12246;PMS7003;6186;52.022;4.692;2023-05-10T12:58:12;7.75;7.00;3.00
12246;PMS7003;6186;52.022;4.692;2023-05-10T13:00:37;4.50;4.50;2.00
12246;PMS7003;6186;52.022;4.692;2023-05-10T13:03:02;5.00;4.50;2.00
12246;PMS7003;6186;52.022;4.692;2023-05-10T13:05:28;6.20;5.00;3.00
12246;PMS7003;6186;52.022;4.692;2023-05-10T13:07:54;7.00;6.50;3.00
12246;PMS7003;6186;52.022;4.692;2023-05-10T13:10:19;6.50;6.50;3.00
12246;PMS7003;6186;52.022;4.692;2023-05-10T13:12:44;6.00;5.00;3.00
12246;PMS7003;6186;52.022;4.692;2023-05-10T13:15:09;5.75;5.75;3.00
12246;PMS7003;6186;52.022;4.692;2023-05-10T13:17:35;7.00;6.00;3.00
12246;PMS7003;6186;52.022;4.692;2023-05-10T13:20:00;7.25;6.75;4.00
12246;PMS7003;6186;52.022;4.692;2023-05-10T13:22:25;8.00;6.00;3.00
12246;PMS7003;6186;52.022;4.692;2023-05-10T13:24:50;6.25;6.00;3.00
12246;PMS7003;6186;52.022;4.692;2023-05-10T13:27:16;10.00;8.00;3.75
12246;PMS7003;6186;52.022;4.692;2023-05-10T13:29:41;7.75;6.25;4.00
12246;PMS7003;6186;52.022;4.692;2023-05-10T13:32:06;9.75;8.00;3.00
12246;PMS7003;6186;52.022;4.692;2023-05-10T13:34:31;7.00;7.00;4.00
12246;PMS7003;6186;52.022;4.692;2023-05-10T13:36:57;7.25;6.00;3.25
12246;PMS7003;6186;52.022;4.692;2023-05-10T13:39:22;6.00;6.00;3.50
12246;PMS7003;6186;52.022;4.692;2023-05-10T13:41:47;7.50;6.25;3.00
12246;PMS7003;6186;52.022;4.692;2023-05-10T13:44:13;8.25;6.50;3.00
12246;PMS7003;6186;52.022;4.692;2023-05-10T13:46:38;6.00;6.00;3.00
12246;PMS7003;6186;52.022;4.692;2023-05-10T13:49:04;8.75;6.50;3.00
12246;PMS7003;6186;52.022;4.692;2023-05-10T13:51:29;8.00;6.50;3.00
12246;PMS7003;6186;52.022;4.692;2023-05-10T13:53:54;5.75;5.25;2.75
12246;PMS7003;6186;52.022;4.692;2023-05-10T13:56:19;5.00;4.50;2.00
12246;PMS7003;6186;52.022;4.692;2023-05-10T13:58:45;6.00;6.00;2.00
12246;PMS7003;6186;52.022;4.692;2023-05-10T14:01:10;6.00;5.25;2.00
12246;PMS7003;6186;52.022;4.692;2023-05-10T14:03:35;5.75;4.00;2.00
12246;PMS7003;6186;52.022;4.692;2023-05-10T14:06:00;4.75;4.00;2.00
12246;PMS7003;6186;52.022;4.692;2023-05-10T14:08:26;4.50;4.00;2.00
12246;PMS7003;6186;52.022;4.692;2023-05-10T14:10:51;4.00;4.00;2.00
12246;PMS7003;6186;52.022;4.692;2023-05-10T14:13:16;4.25;4.25;2.75
12246;PMS7003;6186;52.022;4.692;2023-05-10T14:15:41;5.00;4.00;2.00
12246;PMS7003;6186;52.022;4.692;2023-05-10T14:18:06;5.00;5.00;3.00
12246;PMS7003;6186;52.022;4.692;2023-05-10T14:20:32;6.00;6.00;3.00
12246;PMS7003;6186;52.022;4.692;2023-05-10T14:22:57;4.25;4.00;1.75
12246;PMS7003;6186;52.022;4.692;2023-05-10T14:25:22;4.75;4.75;2.50
12246;PMS7003;6186;52.022;4.692;2023-05-10T14:27:48;4.00;4.00;2.00
12246;PMS7003;6186;52.022;4.692;2023-05-10T14:30:13;5.00;4.50;2.00
12246;PMS7003;6186;52.022;4.692;2023-05-10T14:32:38;4.25;4.25;2.00
12246;PMS7003;6186;52.022;4.692;2023-05-10T14:35:04;6.00;5.00;1.75
12246;PMS7003;6186;52.022;4.692;2023-05-10T14:37:29;5.00;4.00;2.00
12246;PMS7003;6186;52.022;4.692;2023-05-10T14:39:54;6.50;5.00;2.00
12246;PMS7003;6186;52.022;4.692;2023-05-10T14:42:20;4.00;4.00;2.00